createdAt,value
2023-02-24T00:01:28.556Z,9.16
2023-02-24T00:06:44.008Z,9.12
2023-02-24T00:09:35.205Z,9.11
2023-02-24T00:12:26.722Z,9.12
2023-02-24T00:14:59.288Z,9.09
2023-02-24T00:17:33.220Z,9.09
2023-02-24T00:20:02.060Z,9.08
2023-02-24T00:22:34.732Z,9.05
2023-02-24T00:25:04.020Z,9.05
2023-02-24T00:27:51.937Z,9.04
2023-02-24T00:30:33.825Z,9.05
2023-02-24T00:33:05.910Z,9.03
2023-02-24T00:35:37.197Z,9.01
2023-02-24T00:38:03.804Z,9.01
2023-02-24T00:40:39.311Z,8.98
2023-02-24T00:43:23.042Z,8.98
2023-02-24T00:45:53.656Z,8.95
2023-02-24T00:48:29.712Z,8.91
2023-02-24T00:51:00.964Z,8.91
2023-02-24T00:53:32.313Z,8.92
2023-02-24T00:56:18.417Z,8.90
2023-02-24T00:58:51.099Z,8.89
2023-02-24T01:01:27.641Z,8.84
2023-02-24T01:03:57.145Z,8.84
2023-02-24T01:06:29.349Z,8.81
2023-02-24T01:09:09.793Z,8.80
2023-02-24T01:12:03.168Z,8.78
2023-02-24T01:14:37.444Z,8.72
2023-02-24T01:17:19.510Z,8.70
2023-02-24T01:19:57.453Z,8.62
2023-02-24T01:22:29.631Z,8.53
2023-02-24T01:25:30.673Z,8.52
2023-02-24T01:28:00.002Z,8.41
2023-02-24T01:30:30.445Z,8.40
2023-02-24T01:32:59.420Z,8.33
2023-02-24T01:35:30.782Z,8.31
2023-02-24T01:38:06.443Z,8.22
2023-02-24T01:40:48.675Z,8.14
2023-02-24T01:46:05.459Z,8.05
2023-02-24T01:48:34.444Z,8.05
2023-02-24T01:51:03.338Z,8.00
2023-02-24T01:53:30.224Z,8.03
2023-02-24T01:56:02.162Z,8.03
2023-02-24T01:58:30.388Z,8.14
2023-02-24T02:01:09.288Z,8.15
2023-02-24T02:03:44.733Z,8.15
2023-02-24T02:06:19.769Z,8.15
2023-02-24T02:08:53.574Z,8.15
2023-02-24T02:11:35.142Z,8.15
2023-02-24T02:14:23.150Z,8.16
2023-02-24T02:17:17.974Z,8.19
2023-02-24T02:19:47.354Z,8.21
2023-02-24T02:22:49.312Z,8.23
2023-02-24T02:25:29.264Z,8.26
2023-02-24T02:28:11.036Z,8.29
2023-02-24T02:30:56.330Z,8.23
2023-02-24T02:33:49.971Z,8.26
2023-02-24T02:36:19.513Z,8.28
2023-02-24T02:39:00.944Z,8.28
2023-02-24T02:42:22.343Z,8.27
2023-02-24T02:45:10.960Z,8.25
2023-02-24T02:48:15.207Z,8.25
2023-02-24T02:53:59.985Z,8.24
2023-02-24T03:00:21.819Z,8.24
2023-02-24T03:03:02.537Z,8.18
2023-02-24T03:05:55.593Z,8.13
2023-02-24T03:08:28.499Z,8.12
2023-02-24T03:11:02.419Z,8.09
2023-02-24T03:13:44.630Z,8.06
2023-02-24T03:16:13.763Z,8.00
2023-02-24T03:19:03.967Z,8.00
2023-02-24T03:21:33.590Z,7.97
2023-02-24T03:24:10.969Z,7.95
2023-02-24T03:26:50.147Z,7.95
2023-02-24T03:29:48.985Z,7.93
2023-02-24T03:36:07.045Z,7.87
2023-02-24T03:38:53.980Z,7.85
2023-02-24T03:41:31.543Z,7.90
2023-02-24T03:44:07.308Z,7.86
2023-02-24T03:46:42.646Z,7.86
2023-02-24T03:49:17.049Z,7.88
2023-02-24T03:52:03.486Z,7.84
2023-02-24T03:55:17.526Z,7.90
2023-02-24T03:58:06.218Z,7.87
2023-02-24T04:01:14.078Z,7.87
2023-02-24T04:04:07.033Z,7.86
2023-02-24T04:06:47.375Z,7.88
2023-02-24T04:09:37.506Z,7.85
2023-02-24T04:12:18.603Z,7.86
2023-02-24T04:15:25.372Z,7.85
2023-02-24T04:18:16.462Z,7.82
2023-02-24T04:21:20.439Z,7.82
2023-02-24T04:23:47.961Z,7.86
2023-02-24T04:26:20.269Z,7.82
2023-02-24T04:28:59.649Z,7.82
2023-02-24T04:34:47.731Z,7.81
2023-02-24T04:37:30.862Z,7.79
2023-02-24T04:40:30.335Z,7.78
2023-02-24T04:43:05.448Z,7.77
2023-02-24T04:45:40.550Z,7.76
2023-02-24T04:48:19.883Z,7.77
2023-02-24T04:51:11.834Z,7.75
2023-02-24T04:53:49.115Z,7.74
2023-02-24T04:56:31.817Z,7.70
2023-02-24T04:59:21.729Z,7.72
2023-02-24T05:04:53.508Z,7.74
2023-02-24T05:07:22.807Z,7.74
2023-02-24T05:09:58.246Z,7.73
2023-02-24T05:12:31.949Z,7.74
2023-02-24T05:15:18.923Z,7.72
2023-02-24T05:17:56.288Z,7.69
2023-02-24T05:26:32.211Z,7.68
2023-02-24T05:31:42.651Z,7.63
2023-02-24T05:34:26.883Z,7.64
2023-02-24T05:37:21.424Z,7.62
2023-02-24T05:43:15.394Z,7.57
2023-02-24T05:45:48.282Z,7.55
2023-02-24T05:48:18.764Z,7.54
2023-02-24T05:50:58.018Z,7.50
2023-02-24T05:53:25.400Z,7.48
2023-02-24T05:56:13.980Z,7.54
2023-02-24T05:58:59.192Z,7.53
2023-02-24T06:01:43.924Z,7.53
2023-02-24T06:04:36.430Z,7.51
2023-02-24T06:07:28.162Z,7.49
2023-02-24T06:10:11.586Z,7.49
2023-02-24T06:13:01.342Z,7.48
2023-02-24T06:15:39.148Z,7.49
2023-02-24T06:18:07.038Z,7.50
2023-02-24T06:20:56.334Z,7.50
2023-02-24T06:23:31.196Z,7.47
2023-02-24T06:26:19.558Z,7.47
2023-02-24T06:28:48.076Z,7.50
2023-02-24T06:31:18.306Z,7.49
2023-02-24T06:34:04.640Z,7.53
2023-02-24T06:36:53.784Z,7.53
2023-02-24T06:39:22.588Z,7.53
2023-02-24T06:44:58.688Z,7.56
2023-02-24T06:48:08.505Z,7.56
2023-02-24T06:50:41.987Z,7.67
2023-02-24T06:53:33.526Z,7.69
2023-02-24T06:56:07.099Z,7.74
2023-02-24T06:58:37.817Z,7.73
2023-02-24T07:01:12.718Z,7.75
2023-02-24T07:03:47.486Z,7.74
2023-02-24T07:06:28.212Z,7.75
2023-02-24T07:09:02.317Z,7.77
2023-02-24T07:11:46.949Z,7.78
2023-02-24T07:14:42.788Z,7.82
2023-02-24T07:17:22.400Z,7.85
2023-02-24T07:20:02.131Z,7.91
2023-02-24T07:22:38.224Z,7.95
2023-02-24T07:25:33.342Z,7.98
2023-02-24T07:28:17.104Z,8.05
2023-02-24T07:30:51.461Z,8.04
2023-02-24T07:33:27.514Z,8.05
2023-02-24T07:36:08.941Z,8.09
2023-02-24T07:38:39.736Z,8.12
2023-02-24T07:41:12.361Z,8.15
2023-02-24T07:43:40.632Z,8.16
2023-02-24T07:46:15.986Z,8.20
2023-02-24T07:48:42.760Z,8.17
2023-02-24T07:51:14.739Z,8.21
2023-02-24T07:53:44.102Z,8.25
2023-02-24T07:56:18.755Z,8.24
2023-02-24T07:58:51.813Z,8.25
2023-02-24T08:01:24.895Z,8.33
2023-02-24T08:04:07.977Z,8.36
2023-02-24T08:06:45.467Z,8.37
2023-02-24T08:09:20.174Z,8.33
2023-02-24T08:11:55.154Z,8.39
2023-02-24T08:14:34.872Z,8.42
2023-02-24T08:17:05.349Z,8.43
2023-02-24T08:19:33.475Z,8.42
2023-02-24T08:22:19.301Z,8.42
2023-02-24T08:24:50.094Z,8.39
2023-02-24T08:27:21.833Z,8.37
2023-02-24T08:29:59.962Z,8.43
2023-02-24T08:32:45.006Z,8.47
2023-02-24T08:35:17.029Z,8.45
2023-02-24T08:37:48.271Z,8.52
2023-02-24T08:40:49.661Z,8.55
2023-02-24T08:43:24.949Z,8.62
2023-02-24T08:45:59.345Z,8.63
2023-02-24T08:48:38.183Z,8.69
2023-02-24T08:51:09.838Z,8.77
2023-02-24T08:53:40.435Z,8.85
2023-02-24T08:56:11.497Z,8.91
2023-02-24T08:58:49.383Z,8.90
2023-02-24T09:01:24.132Z,9.09
2023-02-24T09:03:54.430Z,9.04
2023-02-24T09:06:25.837Z,9.09
2023-02-24T09:09:15.353Z,9.17
2023-02-24T09:11:44.689Z,9.23
2023-02-24T09:14:25.988Z,9.31
2023-02-24T09:17:02.466Z,9.25
2023-02-24T09:19:51.920Z,9.37
2023-02-24T09:22:41.828Z,9.47
2023-02-24T09:25:40.590Z,9.61
2023-02-24T09:28:24.957Z,9.36
2023-02-24T09:31:00.306Z,9.28
2023-02-24T09:33:41.152Z,9.45
2023-02-24T09:36:13.141Z,9.44
2023-02-24T09:39:01.238Z,9.68
2023-02-24T09:41:54.836Z,9.71
2023-02-24T09:44:36.546Z,9.77
2023-02-24T09:47:13.429Z,9.76
2023-02-24T09:49:59.044Z,9.77
2023-02-24T09:52:43.629Z,9.82
2023-02-24T09:55:25.082Z,9.95
2023-02-24T09:58:18.956Z,9.65
2023-02-24T10:01:20.949Z,9.95
2023-02-24T10:04:14.884Z,9.92
2023-02-24T10:06:50.233Z,10.06
2023-02-24T10:09:35.860Z,10.11
2023-02-24T10:12:11.736Z,10.14
2023-02-24T10:15:19.101Z,10.43
2023-02-24T10:17:58.137Z,10.46
2023-02-24T10:20:31.222Z,10.62
2023-02-24T10:23:09.719Z,10.62
2023-02-24T10:25:53.775Z,10.80
2023-02-24T10:28:51.062Z,10.82
2023-02-24T10:31:46.056Z,10.55
2023-02-24T10:34:20.857Z,10.70
2023-02-24T10:36:50.342Z,10.74
2023-02-24T10:39:21.098Z,10.84
2023-02-24T10:42:15.645Z,11.02
2023-02-24T10:45:02.237Z,11.26
2023-02-24T10:47:33.165Z,11.01
2023-02-24T10:50:12.582Z,11.44
2023-02-24T10:52:56.497Z,11.41
2023-02-24T10:55:45.920Z,11.52
2023-02-24T10:58:27.837Z,11.55
2023-02-24T11:01:20.937Z,11.50
2023-02-24T11:04:23.929Z,11.68
2023-02-24T11:06:53.912Z,11.79
2023-02-24T11:09:27.793Z,11.72
2023-02-24T11:12:31.539Z,11.91
2023-02-24T11:15:23.225Z,11.77
2023-02-24T11:17:56.987Z,11.86
2023-02-24T11:20:48.359Z,11.96
2023-02-24T11:23:29.284Z,11.97
2023-02-24T11:26:00.965Z,11.86
2023-02-24T11:28:59.545Z,11.92
2023-02-24T11:31:44.428Z,11.88
2023-02-24T11:34:18.775Z,11.97
2023-02-24T11:37:14.470Z,12.07
2023-02-24T11:40:01.535Z,12.11
2023-02-24T11:42:52.403Z,12.12
2023-02-24T11:45:40.156Z,12.21
2023-02-24T11:48:16.030Z,12.40
2023-02-24T11:51:20.102Z,12.64
2023-02-24T11:54:01.951Z,12.55
2023-02-24T11:56:35.055Z,12.46
2023-02-24T11:59:14.038Z,12.41
2023-02-24T12:01:59.192Z,12.34
2023-02-24T12:04:46.574Z,12.69
2023-02-24T12:07:12.972Z,12.53
2023-02-24T12:09:54.909Z,12.71
2023-02-24T12:12:32.276Z,12.80
2023-02-24T12:15:03.588Z,12.82
2023-02-24T12:17:36.688Z,12.54
2023-02-24T12:20:14.217Z,12.56
2023-02-24T12:22:51.491Z,12.55
2023-02-24T12:25:23.988Z,12.87
2023-02-24T12:28:11.649Z,12.57
2023-02-24T12:30:49.915Z,12.33
2023-02-24T12:33:43.691Z,12.35
2023-02-24T12:36:15.699Z,12.13
2023-02-24T12:38:51.134Z,12.26
2023-02-24T12:41:29.842Z,12.31
2023-02-24T12:44:17.781Z,12.34
2023-02-24T12:46:52.503Z,12.39
2023-02-24T12:49:21.803Z,12.41
2023-02-24T12:52:13.174Z,12.36
2023-02-24T12:54:53.581Z,12.51
2023-02-24T12:57:31.011Z,12.62
2023-02-24T13:00:06.485Z,12.71
2023-02-24T13:02:56.964Z,12.75
2023-02-24T13:05:43.164Z,12.81
2023-02-24T13:08:45.731Z,12.76
2023-02-24T13:11:27.514Z,12.77
2023-02-24T13:14:16.541Z,12.49
2023-02-24T13:16:43.157Z,12.26
2023-02-24T13:19:29.837Z,12.53
2023-02-24T13:22:06.317Z,12.48
2023-02-24T13:24:33.668Z,12.55
2023-02-24T13:27:13.243Z,12.58
2023-02-24T13:30:20.005Z,12.43
2023-02-24T13:33:06.602Z,12.60
2023-02-24T13:35:37.056Z,12.55
2023-02-24T13:38:32.806Z,12.56
2023-02-24T13:41:30.048Z,12.72
2023-02-24T13:44:19.963Z,12.77
2023-02-24T13:47:28.943Z,12.71
2023-02-24T13:50:10.779Z,12.72
2023-02-24T13:52:43.086Z,12.72
2023-02-24T13:55:30.655Z,12.52
2023-02-24T13:58:08.750Z,12.22
2023-02-24T14:00:53.956Z,12.34
2023-02-24T14:03:26.814Z,12.34
2023-02-24T14:05:53.592Z,12.29
2023-02-24T14:08:41.134Z,12.21
2023-02-24T14:11:21.331Z,12.29
2023-02-24T14:13:56.658Z,12.46
2023-02-24T14:16:35.889Z,12.60
2023-02-24T14:19:03.631Z,12.76
2023-02-24T14:21:34.871Z,12.94
2023-02-24T14:24:05.261Z,12.98
2023-02-24T14:26:41.868Z,12.98
2023-02-24T14:29:08.907Z,12.84
2023-02-24T14:31:38.633Z,12.84
2023-02-24T14:34:16.264Z,12.70
2023-02-24T14:36:45.248Z,12.79
2023-02-24T14:39:22.138Z,12.71
2023-02-24T14:41:50.629Z,12.67
2023-02-24T14:44:26.505Z,12.53
2023-02-24T14:47:02.789Z,12.46
2023-02-24T14:49:33.498Z,12.50
2023-02-24T14:52:02.580Z,12.46
2023-02-24T14:54:48.434Z,12.42
2023-02-24T14:57:22.201Z,12.38
2023-02-24T14:59:52.879Z,12.37
2023-02-24T15:02:25.539Z,12.32
2023-02-24T15:04:54.507Z,12.23
2023-02-24T15:07:29.776Z,12.28
2023-02-24T15:09:57.399Z,12.12
2023-02-24T15:12:35.904Z,12.08
2023-02-24T15:15:09.158Z,12.02
2023-02-24T15:17:41.020Z,12.00
2023-02-24T15:20:26.135Z,11.90
2023-02-24T15:22:52.653Z,11.85
2023-02-24T15:25:28.122Z,11.84
2023-02-24T15:28:03.564Z,11.84
2023-02-24T15:30:39.817Z,11.86
2023-02-24T15:33:29.101Z,11.86
2023-02-24T15:35:58.994Z,11.82
2023-02-24T15:38:35.136Z,11.69
2023-02-24T15:41:04.289Z,11.68
2023-02-24T15:43:32.031Z,11.61
2023-02-24T15:45:58.527Z,11.56
2023-02-24T15:48:31.564Z,11.49
2023-02-24T15:51:05.436Z,11.46
2023-02-24T15:53:34.187Z,11.41
2023-02-24T15:56:00.786Z,11.39
2023-02-24T15:58:30.588Z,11.32
2023-02-24T16:00:57.142Z,11.26
2023-02-24T16:03:23.586Z,11.18
2023-02-24T16:05:49.988Z,11.20
2023-02-24T16:08:19.202Z,11.12
2023-02-24T16:10:46.495Z,11.05
2023-02-24T16:13:20.311Z,10.98
2023-02-24T16:15:46.779Z,10.92
2023-02-24T16:18:21.931Z,10.91
2023-02-24T16:20:54.866Z,10.82
2023-02-24T16:23:22.478Z,10.77
2023-02-24T16:25:51.470Z,10.68
2023-02-24T16:28:20.279Z,10.62
2023-02-24T16:30:49.910Z,10.59
2023-02-24T16:33:18.436Z,10.57
2023-02-24T16:35:45.444Z,10.44
2023-02-24T16:38:16.894Z,10.38
2023-02-24T16:40:45.333Z,10.36
2023-02-24T16:43:13.418Z,10.28
2023-02-24T16:45:43.478Z,10.18
2023-02-24T16:48:19.336Z,10.11
2023-02-24T16:50:45.965Z,10.13
2023-02-24T16:53:20.167Z,10.05
2023-02-24T16:55:47.204Z,9.96
2023-02-24T16:58:14.630Z,9.89
2023-02-24T17:00:46.186Z,9.83
2023-02-24T17:03:16.608Z,9.86
2023-02-24T17:05:44.340Z,9.80
2023-02-24T17:08:11.560Z,9.77
2023-02-24T17:10:39.930Z,9.78
2023-02-24T17:13:06.861Z,9.64
2023-02-24T17:15:36.465Z,9.65
2023-02-24T17:18:02.948Z,9.65
2023-02-24T17:20:29.706Z,9.50
2023-02-24T17:22:56.283Z,9.54
2023-02-24T17:25:25.830Z,9.43
2023-02-24T17:27:54.201Z,9.39
2023-02-24T17:30:24.190Z,9.38
2023-02-24T17:32:50.946Z,9.43
2023-02-24T17:35:20.484Z,9.38
2023-02-24T17:37:47.075Z,9.35
2023-02-24T17:40:14.248Z,9.30
2023-02-24T17:42:41.264Z,9.28
2023-02-24T17:45:08.671Z,9.26
2023-02-24T17:47:35.520Z,9.27
2023-02-24T17:50:02.898Z,9.25
2023-02-24T17:52:31.610Z,9.24
2023-02-24T17:54:58.420Z,9.24
2023-02-24T17:57:27.093Z,9.20
2023-02-24T17:59:55.705Z,9.21
2023-02-24T18:02:22.420Z,9.20
2023-02-24T18:04:49.703Z,9.22
2023-02-24T18:07:16.421Z,9.34
2023-02-24T18:09:42.777Z,9.33
2023-02-24T18:12:09.196Z,9.42
2023-02-24T18:14:35.973Z,9.47
2023-02-24T18:17:04.948Z,9.48
2023-02-24T18:19:31.400Z,9.49
2023-02-24T18:21:58.006Z,9.54
2023-02-24T18:24:24.430Z,9.54
2023-02-24T18:26:50.862Z,9.54
2023-02-24T18:29:17.318Z,9.57
2023-02-24T18:31:43.885Z,9.57
2023-02-24T18:34:10.456Z,9.56
2023-02-24T18:36:36.986Z,9.53
2023-02-24T18:39:03.952Z,9.55
2023-02-24T18:41:30.818Z,9.52
2023-02-24T18:43:59.083Z,9.54
2023-02-24T18:46:26.720Z,9.53
2023-02-24T18:48:56.438Z,9.51
2023-02-24T18:51:29.182Z,9.43
2023-02-24T18:53:58.169Z,9.32
2023-02-24T18:56:29.483Z,9.21
2023-02-24T18:58:58.164Z,9.11
2023-02-24T19:01:34.020Z,9.02
2023-02-24T19:04:01.062Z,8.95
2023-02-24T19:06:29.594Z,8.88
2023-02-24T19:09:16.630Z,8.77
2023-02-24T19:11:43.211Z,8.67
2023-02-24T19:14:13.386Z,8.58
2023-02-24T19:16:40.442Z,8.54
2023-02-24T19:19:06.986Z,8.45
2023-02-24T19:21:34.596Z,8.37
2023-02-24T19:24:08.343Z,8.31
2023-02-24T19:26:34.973Z,8.31
2023-02-24T19:29:01.669Z,8.22
2023-02-24T19:31:32.012Z,8.19
2023-02-24T19:34:01.244Z,8.12
2023-02-24T19:36:29.397Z,8.07
2023-02-24T19:38:56.166Z,8.03
2023-02-24T19:41:23.199Z,7.99
2023-02-24T19:43:49.889Z,7.91
2023-02-24T19:46:17.649Z,7.85
2023-02-24T19:49:07.268Z,7.75
2023-02-24T19:51:33.737Z,7.65
2023-02-24T19:54:05.794Z,7.54
2023-02-24T19:56:35.727Z,7.31
2023-02-24T19:59:07.729Z,7.20
2023-02-24T20:01:34.388Z,7.08
2023-02-24T20:04:21.628Z,7.02
2023-02-24T20:06:48.803Z,6.82
2023-02-24T20:09:21.703Z,6.71
2023-02-24T20:11:52.111Z,6.60
2023-02-24T20:14:21.731Z,6.55
2023-02-24T20:16:48.623Z,6.44
2023-02-24T20:19:19.987Z,6.42
2023-02-24T20:21:47.654Z,6.40
2023-02-24T20:24:15.880Z,6.35
2023-02-24T20:26:47.332Z,6.30
2023-02-24T20:29:15.454Z,6.27
2023-02-24T20:31:42.682Z,6.23
2023-02-24T20:34:11.144Z,6.16
2023-02-24T20:36:37.539Z,6.13
2023-02-24T20:39:06.671Z,6.11
2023-02-24T20:41:33.751Z,6.03
2023-02-24T20:44:00.412Z,5.99
2023-02-24T20:46:30.138Z,5.96
2023-02-24T20:49:01.879Z,5.95
2023-02-24T20:51:30.039Z,5.94
2023-02-24T20:53:58.598Z,5.95
2023-02-24T20:56:29.873Z,5.90
2023-02-24T20:59:01.754Z,5.90
2023-02-24T21:01:30.506Z,5.88
2023-02-24T21:03:57.136Z,5.89
2023-02-24T21:06:24.877Z,5.88
2023-02-24T21:08:53.456Z,5.88
2023-02-24T21:11:21.176Z,5.90
2023-02-24T21:13:49.889Z,5.87
2023-02-24T21:16:18.594Z,5.85
2023-02-24T21:18:47.805Z,5.90
2023-02-24T21:21:15.355Z,5.88
2023-02-24T21:23:43.415Z,5.88
2023-02-24T21:26:11.420Z,5.92
2023-02-24T21:28:40.512Z,5.90
2023-02-24T21:31:15.300Z,5.88
2023-02-24T21:33:42.578Z,5.93
2023-02-24T21:36:13.546Z,5.90
2023-02-24T21:38:41.789Z,5.87
2023-02-24T21:41:14.834Z,5.89
2023-02-24T21:43:44.335Z,5.83
2023-02-24T21:46:13.242Z,5.93
2023-02-24T21:48:41.959Z,5.88
2023-02-24T21:51:13.651Z,5.82
2023-02-24T21:53:43.431Z,5.82
2023-02-24T21:56:18.920Z,5.79
2023-02-24T21:58:54.416Z,5.77
2023-02-24T22:01:25.474Z,5.78
2023-02-24T22:04:02.826Z,5.71
2023-02-24T22:06:32.037Z,5.71
2023-02-24T22:09:03.700Z,5.63
2023-02-24T22:11:37.367Z,5.63
2023-02-24T22:14:07.052Z,5.59
2023-02-24T22:16:33.639Z,5.60
2023-02-24T22:19:00.263Z,5.56
2023-02-24T22:21:28.775Z,5.58
2023-02-24T22:23:57.870Z,5.58
2023-02-24T22:26:28.621Z,5.58
2023-02-24T22:29:01.322Z,5.55
2023-02-24T22:31:30.828Z,5.53
2023-02-24T22:33:58.653Z,5.60
2023-02-24T22:36:30.886Z,5.58
2023-02-24T22:38:59.470Z,5.56
2023-02-24T22:41:31.329Z,5.61
2023-02-24T22:44:01.718Z,5.59
2023-02-24T22:46:34.068Z,5.55
2023-02-24T22:49:05.750Z,5.57
2023-02-24T22:51:34.856Z,5.59
2023-02-24T22:54:01.412Z,5.63
2023-02-24T22:56:31.328Z,5.66
2023-02-24T22:58:58.988Z,5.64
2023-02-24T23:01:31.333Z,5.62
2023-02-24T23:04:05.818Z,5.72
2023-02-24T23:06:33.054Z,5.69
2023-02-24T23:09:07.265Z,5.67
2023-02-24T23:11:39.530Z,5.79
2023-02-24T23:14:23.531Z,5.77
2023-02-24T23:16:55.589Z,5.84
2023-02-24T23:19:22.892Z,5.87
2023-02-24T23:21:53.904Z,5.93
2023-02-24T23:24:23.997Z,6.04
2023-02-24T23:26:53.929Z,6.01
2023-02-24T23:29:30.888Z,5.96
2023-02-24T23:31:58.124Z,6.00
2023-02-24T23:34:27.028Z,6.03
2023-02-24T23:36:55.159Z,6.01
2023-02-24T23:39:24.099Z,6.03
2023-02-24T23:41:57.066Z,6.09
2023-02-24T23:44:30.031Z,6.06
2023-02-24T23:46:58.205Z,6.05
2023-02-24T23:49:24.824Z,6.05
2023-02-24T23:51:51.510Z,5.90
2023-02-24T23:54:23.288Z,5.90
2023-02-24T23:56:50.043Z,5.87
2023-02-24T23:59:16.990Z,5.84
